createdAt,value
2022-10-19T00:01:08.408Z,14.20
2022-10-19T00:04:10.003Z,12.55
2022-10-19T00:07:11.594Z,13.15
2022-10-19T00:10:13.188Z,11.52
2022-10-19T00:13:14.887Z,13.18
2022-10-19T00:16:17.881Z,12.63
2022-10-19T00:19:25.522Z,12.55
2022-10-19T00:22:27.059Z,11.18
2022-10-19T00:25:28.719Z,12.55
2022-10-19T00:28:30.657Z,11.60
2022-10-19T00:31:32.531Z,11.40
2022-10-19T00:34:34.100Z,11.00
2022-10-19T00:37:35.687Z,11.27
2022-10-19T00:40:38.491Z,11.65
2022-10-19T00:43:58.872Z,11.67
2022-10-19T00:47:03.782Z,11.50
2022-10-19T00:50:06.028Z,11.82
2022-10-19T00:53:07.649Z,14.05
2022-10-19T00:56:13.947Z,12.60
2022-10-19T00:59:18.689Z,13.63
2022-10-19T01:02:20.290Z,12.35
2022-10-19T01:05:22.459Z,12.07
2022-10-19T01:08:24.106Z,27.92
2022-10-19T01:11:38.529Z,15.80
2022-10-19T01:15:12.088Z,11.10
2022-10-19T01:18:36.473Z,10.60
2022-10-19T01:21:48.554Z,24.58
2022-10-19T01:25:10.770Z,11.13
2022-10-19T01:28:49.395Z,11.75
2022-10-19T01:32:27.638Z,12.60
2022-10-19T01:35:40.977Z,13.05
2022-10-19T01:38:47.716Z,12.27
2022-10-19T01:42:01.074Z,13.68
2022-10-19T01:45:17.381Z,16.40
2022-10-19T01:48:24.257Z,16.13
2022-10-19T01:51:32.587Z,13.00
2022-10-19T01:54:42.687Z,38.67
2022-10-19T01:57:48.300Z,14.18
2022-10-19T02:00:53.206Z,13.90
2022-10-19T02:03:56.473Z,13.60
2022-10-19T02:06:59.226Z,14.90
2022-10-19T02:10:01.226Z,14.00
2022-10-19T02:13:04.531Z,14.95
2022-10-19T02:16:11.190Z,13.50
2022-10-19T02:19:15.756Z,15.50
2022-10-19T02:22:17.640Z,14.65
2022-10-19T02:25:19.808Z,15.35
2022-10-19T02:28:22.952Z,14.32
2022-10-19T02:31:25.345Z,15.35
2022-10-19T02:34:27.387Z,15.52
2022-10-19T02:37:29.175Z,14.57
2022-10-19T02:40:36.132Z,14.30
2022-10-19T02:43:40.853Z,15.88
2022-10-19T02:46:45.516Z,16.48
2022-10-19T02:49:49.111Z,14.70
2022-10-19T02:52:50.838Z,16.20
2022-10-19T02:55:52.594Z,16.80
2022-10-19T02:58:54.323Z,16.95
2022-10-19T03:01:58.590Z,14.43
2022-10-19T03:05:00.213Z,14.27
2022-10-19T03:08:01.743Z,14.37
2022-10-19T03:11:03.719Z,14.38
2022-10-19T03:14:05.398Z,14.65
2022-10-19T03:17:07.204Z,14.20
2022-10-19T03:20:10.210Z,13.18
2022-10-19T03:23:11.752Z,16.48
2022-10-19T03:26:15.772Z,15.00
2022-10-19T03:29:17.313Z,14.43
2022-10-19T03:32:19.001Z,14.02
2022-10-19T03:35:20.625Z,13.63
2022-10-19T03:38:22.212Z,15.10
2022-10-19T03:41:27.662Z,15.52
2022-10-19T03:44:29.200Z,16.17
2022-10-19T03:47:30.833Z,14.40
2022-10-19T03:50:32.434Z,15.18
2022-10-19T03:53:34.416Z,14.48
2022-10-19T03:56:36.536Z,14.25
2022-10-19T03:59:38.196Z,14.23
2022-10-19T04:02:39.794Z,15.27
2022-10-19T04:05:41.337Z,17.00
2022-10-19T04:08:44.262Z,13.95
2022-10-19T04:11:46.219Z,14.20
2022-10-19T04:14:56.893Z,14.40
2022-10-19T04:17:59.339Z,16.05
2022-10-19T04:21:04.453Z,14.50
2022-10-19T04:24:13.561Z,14.18
2022-10-19T04:27:15.128Z,12.95
2022-10-19T04:30:16.763Z,14.90
2022-10-19T04:33:18.287Z,15.38
2022-10-19T04:36:20.320Z,14.27
2022-10-19T04:39:21.860Z,14.48
2022-10-19T04:42:23.409Z,13.75
2022-10-19T04:45:24.913Z,13.57
2022-10-19T04:48:26.431Z,13.70
2022-10-19T04:51:28.259Z,14.15
2022-10-19T04:54:29.810Z,13.07
2022-10-19T04:57:31.682Z,14.60
2022-10-19T05:00:34.118Z,15.05
2022-10-19T05:03:35.751Z,13.97
2022-10-19T05:06:37.412Z,14.02
2022-10-19T05:09:40.446Z,13.82
2022-10-19T05:12:42.027Z,14.15
2022-10-19T05:15:43.693Z,15.35
2022-10-19T05:18:50.362Z,16.87
2022-10-19T05:21:52.081Z,14.32
2022-10-19T05:24:57.334Z,16.70
2022-10-19T05:27:59.838Z,15.32
2022-10-19T05:31:13.357Z,15.40
2022-10-19T05:34:14.916Z,15.60
2022-10-19T05:37:17.369Z,15.07
2022-10-19T05:40:28.636Z,18.17
2022-10-19T05:43:32.196Z,15.90
2022-10-19T05:46:36.814Z,16.00
2022-10-19T05:49:41.379Z,18.67
2022-10-19T05:52:42.942Z,16.33
2022-10-19T05:55:47.102Z,15.32
2022-10-19T05:58:49.479Z,16.50
2022-10-19T06:01:51.103Z,16.52
2022-10-19T06:04:53.175Z,16.85
2022-10-19T06:08:00.531Z,17.08
2022-10-19T06:11:17.091Z,17.67
2022-10-19T06:14:18.986Z,16.95
2022-10-19T06:17:24.921Z,18.85
2022-10-19T06:20:30.363Z,18.80
2022-10-19T06:23:33.415Z,19.50
2022-10-19T06:26:35.799Z,18.45
2022-10-19T06:29:37.510Z,22.83
2022-10-19T06:32:39.269Z,21.00
2022-10-19T06:35:43.002Z,21.23
2022-10-19T06:38:44.835Z,21.17
2022-10-19T06:41:46.385Z,20.83
2022-10-19T06:44:59.807Z,20.10
2022-10-19T06:48:03.664Z,23.27
2022-10-19T06:51:08.494Z,20.47
2022-10-19T06:54:10.242Z,21.13
2022-10-19T06:57:11.928Z,24.02
2022-10-19T07:00:14.088Z,22.42
2022-10-19T07:03:15.603Z,21.60
2022-10-19T07:06:17.398Z,21.60
2022-10-19T07:09:19.718Z,22.25
2022-10-19T07:12:21.292Z,22.65
2022-10-19T07:15:24.897Z,22.80
2022-10-19T07:18:29.619Z,22.80
2022-10-19T07:21:31.363Z,20.38
2022-10-19T07:24:33.876Z,20.63
2022-10-19T07:27:37.864Z,21.27
2022-10-19T07:30:39.580Z,21.50
2022-10-19T07:33:41.303Z,19.48
2022-10-19T07:36:56.047Z,20.45
2022-10-19T07:39:57.607Z,22.63
2022-10-19T07:42:59.186Z,21.73
2022-10-19T07:46:14.664Z,22.90
2022-10-19T07:49:19.960Z,21.65
2022-10-19T07:52:21.485Z,19.33
2022-10-19T07:55:23.063Z,20.58
2022-10-19T07:58:24.681Z,19.65
2022-10-19T08:01:34.571Z,19.80
2022-10-19T08:08:00.248Z,21.98
2022-10-19T08:11:13.957Z,21.75
2022-10-19T08:14:15.629Z,22.70
2022-10-19T08:17:17.671Z,22.13
2022-10-19T08:20:21.808Z,23.08
2022-10-19T08:23:23.799Z,21.77
2022-10-19T08:26:29.056Z,20.42
2022-10-19T08:29:31.750Z,21.10
2022-10-19T08:32:33.929Z,20.73
2022-10-19T08:35:39.687Z,20.80
2022-10-19T08:38:45.644Z,20.00
2022-10-19T08:42:01.277Z,19.63
2022-10-19T08:45:18.816Z,19.50
2022-10-19T08:48:35.177Z,18.90
2022-10-19T08:51:41.073Z,17.80
2022-10-19T08:55:02.795Z,16.98
2022-10-19T08:58:25.259Z,19.80
2022-10-19T09:01:51.963Z,16.60
2022-10-19T09:05:03.538Z,16.75
2022-10-19T09:08:05.297Z,15.23
2022-10-19T09:11:10.372Z,16.40
2022-10-19T09:14:25.804Z,16.27
2022-10-19T09:17:28.510Z,15.40
2022-10-19T09:20:37.931Z,15.50
2022-10-19T09:23:39.725Z,13.75
2022-10-19T09:26:52.188Z,13.70
2022-10-19T09:29:58.880Z,16.38
2022-10-19T09:33:02.526Z,16.37
2022-10-19T09:36:07.588Z,16.85
2022-10-19T09:39:13.562Z,16.30
2022-10-19T09:42:33.295Z,16.38
2022-10-19T09:45:38.452Z,16.60
2022-10-19T09:48:47.674Z,14.90
2022-10-19T09:51:52.564Z,15.30
2022-10-19T09:55:17.698Z,14.98
2022-10-19T09:58:20.722Z,13.48
2022-10-19T10:01:41.941Z,13.30
2022-10-19T10:04:57.496Z,14.13
2022-10-19T10:07:59.359Z,15.88
2022-10-19T10:11:15.577Z,15.15
2022-10-19T10:14:21.556Z,15.25
2022-10-19T10:17:30.602Z,15.18
2022-10-19T10:20:32.726Z,15.27
2022-10-19T10:23:36.593Z,13.65
2022-10-19T10:26:44.456Z,14.90
2022-10-19T10:33:09.434Z,14.88
2022-10-19T10:36:27.334Z,13.40
2022-10-19T10:39:29.507Z,14.38
2022-10-19T10:42:37.176Z,15.15
2022-10-19T10:45:47.135Z,14.60
2022-10-19T10:49:16.245Z,14.15
2022-10-19T10:52:19.625Z,13.97
2022-10-19T10:55:21.515Z,13.35
2022-10-19T10:58:44.676Z,14.88
2022-10-19T11:01:59.184Z,15.15
2022-10-19T11:05:07.577Z,14.32
2022-10-19T11:08:12.118Z,14.93
2022-10-19T11:11:28.504Z,16.08
2022-10-19T11:14:44.337Z,13.85
2022-10-19T11:17:58.407Z,14.45
2022-10-19T11:21:27.921Z,15.38
2022-10-19T11:24:50.902Z,12.37
2022-10-19T11:28:31.063Z,13.65
2022-10-19T11:31:32.562Z,13.45
2022-10-19T11:34:56.219Z,13.30
2022-10-19T11:38:19.581Z,13.25
2022-10-19T11:41:49.620Z,12.50
2022-10-19T11:45:21.988Z,12.00
2022-10-19T11:49:08.037Z,10.35
2022-10-19T11:52:21.712Z,8.95
2022-10-19T11:55:37.695Z,8.55
2022-10-19T11:58:39.280Z,9.23
2022-10-19T12:01:49.988Z,11.27
2022-10-19T12:04:55.870Z,10.98
2022-10-19T12:12:10.079Z,11.15
2022-10-19T12:15:11.578Z,9.90
2022-10-19T12:18:22.494Z,9.23
2022-10-19T12:21:29.325Z,8.88
2022-10-19T12:24:33.865Z,8.18
2022-10-19T12:27:40.740Z,8.38
2022-10-19T12:30:42.438Z,8.70
2022-10-19T12:33:53.255Z,8.10
2022-10-19T12:37:15.516Z,8.27
2022-10-19T12:40:49.305Z,9.68
2022-10-19T12:44:01.706Z,9.43
2022-10-19T12:47:18.940Z,9.33
2022-10-19T12:50:49.295Z,9.73
2022-10-19T12:53:51.031Z,9.07
2022-10-19T12:56:55.523Z,10.02
2022-10-19T13:00:21.197Z,8.95
2022-10-19T13:03:25.180Z,9.67
2022-10-19T13:06:33.952Z,9.18
2022-10-19T13:09:39.378Z,10.02
2022-10-19T13:12:46.802Z,9.48
2022-10-19T13:15:52.164Z,9.95
2022-10-19T13:19:21.166Z,9.33
2022-10-19T13:22:27.692Z,8.65
2022-10-19T13:25:39.726Z,7.75
2022-10-19T13:28:57.539Z,9.05
2022-10-19T13:32:37.806Z,8.82
2022-10-19T13:35:41.042Z,9.03
2022-10-19T13:39:02.865Z,10.00
2022-10-19T13:42:04.675Z,8.40
2022-10-19T13:45:06.813Z,9.15
2022-10-19T13:48:23.612Z,8.50
2022-10-19T13:51:37.166Z,9.43
2022-10-19T13:54:57.842Z,10.07
2022-10-19T13:58:36.688Z,9.88
2022-10-19T14:01:51.770Z,10.48
2022-10-19T14:05:12.186Z,10.45
2022-10-19T14:08:38.268Z,9.63
2022-10-19T14:11:45.764Z,11.07
2022-10-19T14:14:47.388Z,10.75
2022-10-19T14:17:49.197Z,9.20
2022-10-19T14:21:01.635Z,9.93
2022-10-19T14:24:18.815Z,8.93
2022-10-19T14:27:24.703Z,8.55
2022-10-19T14:30:32.788Z,12.95
2022-10-19T14:33:38.060Z,8.35
2022-10-19T14:36:45.127Z,6.55
2022-10-19T14:40:00.338Z,6.83
2022-10-19T14:43:02.053Z,6.60
2022-10-19T14:46:06.735Z,6.65
2022-10-19T14:49:11.700Z,9.80
2022-10-19T14:52:20.141Z,7.15
2022-10-19T14:55:22.711Z,6.27
2022-10-19T14:58:27.792Z,6.47
2022-10-19T15:01:30.229Z,6.68
2022-10-19T15:04:38.592Z,6.10
2022-10-19T15:07:43.064Z,6.53
2022-10-19T15:10:47.310Z,7.30
2022-10-19T15:13:51.826Z,8.45
2022-10-19T15:16:55.060Z,6.38
2022-10-19T15:20:01.123Z,7.25
2022-10-19T15:23:25.911Z,8.07
2022-10-19T15:26:31.108Z,8.27
2022-10-19T15:29:32.659Z,7.20
2022-10-19T15:32:38.389Z,8.25
2022-10-19T15:35:44.040Z,8.02
2022-10-19T15:39:24.861Z,9.00
2022-10-19T15:42:38.252Z,8.33
2022-10-19T15:45:39.950Z,7.97
2022-10-19T15:48:41.453Z,9.45
2022-10-19T15:51:45.154Z,10.85
2022-10-19T15:54:57.973Z,9.07
2022-10-19T15:58:00.282Z,8.00
2022-10-19T16:01:01.975Z,8.77
2022-10-19T16:04:03.699Z,8.38
2022-10-19T16:07:05.422Z,10.25
2022-10-19T16:10:08.525Z,7.35
2022-10-19T16:13:10.155Z,8.63
2022-10-19T16:16:21.108Z,8.35
2022-10-19T16:24:50.007Z,9.27
2022-10-19T16:27:51.753Z,11.13
2022-10-19T16:30:54.657Z,15.50
2022-10-19T16:33:56.318Z,12.15
2022-10-19T16:37:01.403Z,12.45
2022-10-19T16:54:57.624Z,13.60
2022-10-19T16:57:59.513Z,20.17
2022-10-19T17:01:07.571Z,17.90
2022-10-19T17:04:09.481Z,15.85
2022-10-19T17:07:12.905Z,14.10
2022-10-19T17:10:15.401Z,12.73
2022-10-19T17:13:30.707Z,14.35
2022-10-19T17:25:37.918Z,12.43
2022-10-19T17:28:40.445Z,10.45
2022-10-19T17:31:42.699Z,11.00
2022-10-19T17:34:44.324Z,12.63
2022-10-19T17:37:45.927Z,12.93
2022-10-19T17:40:47.711Z,12.30
2022-10-19T17:43:53.486Z,11.38
2022-10-19T17:47:20.147Z,23.05
2022-10-19T17:56:04.184Z,9.88
2022-10-19T17:59:08.897Z,11.97
2022-10-19T18:02:44.090Z,15.30
2022-10-19T18:06:00.021Z,11.75
2022-10-19T18:09:03.862Z,11.73
2022-10-19T18:12:07.542Z,12.73
2022-10-19T18:15:12.555Z,11.90
2022-10-19T18:18:14.329Z,12.20
2022-10-19T18:21:19.032Z,13.93
2022-10-19T18:24:21.532Z,17.13
2022-10-19T18:27:40.569Z,15.88
2022-10-19T18:30:45.142Z,13.57
2022-10-19T18:33:48.281Z,12.70
2022-10-19T18:36:50.446Z,16.02
2022-10-19T18:39:52.008Z,12.23
2022-10-19T18:42:53.554Z,11.95
2022-10-19T18:45:58.139Z,15.07
2022-10-19T18:58:05.590Z,13.10
2022-10-19T19:01:16.062Z,16.50
2022-10-19T19:04:18.141Z,17.23
2022-10-19T19:07:19.752Z,16.67
2022-10-19T19:10:21.741Z,15.07
2022-10-19T19:13:24.082Z,17.38
2022-10-19T19:16:27.526Z,13.88
2022-10-19T19:19:29.863Z,14.10
2022-10-19T19:22:38.903Z,15.40
2022-10-19T19:25:41.027Z,15.57
2022-10-19T19:34:09.809Z,15.65
2022-10-19T19:40:47.951Z,13.85
2022-10-19T19:43:49.547Z,14.70
2022-10-19T19:46:51.085Z,13.65
2022-10-19T19:49:52.648Z,14.48
2022-10-19T19:52:54.210Z,16.48
2022-10-19T19:55:58.040Z,17.13
2022-10-19T19:59:00.813Z,18.00
2022-10-19T20:07:05.544Z,18.70
2022-10-19T20:13:44.686Z,21.88
2022-10-19T20:16:46.436Z,19.58
2022-10-19T20:19:48.085Z,19.77
2022-10-19T20:22:49.986Z,18.48
2022-10-19T20:25:53.542Z,18.92
2022-10-19T20:28:55.752Z,17.00
2022-10-19T20:31:57.544Z,17.33
2022-10-19T20:34:59.136Z,18.30
2022-10-19T20:38:00.738Z,15.40
2022-10-19T20:41:07.047Z,15.43
2022-10-19T20:44:09.843Z,15.80
2022-10-19T20:47:14.973Z,17.90
2022-10-19T20:50:19.296Z,14.82
2022-10-19T20:53:31.800Z,18.08
2022-10-19T20:56:36.307Z,16.75
2022-10-19T20:59:39.545Z,14.38
2022-10-19T21:02:44.743Z,14.25
2022-10-19T21:05:46.442Z,15.05
2022-10-19T21:08:48.303Z,17.03
2022-10-19T21:11:53.315Z,13.63
2022-10-19T21:14:54.895Z,15.40
2022-10-19T21:17:56.476Z,15.75
2022-10-19T21:20:58.131Z,17.43
2022-10-19T21:24:04.475Z,19.83
2022-10-19T21:27:08.994Z,15.68
2022-10-19T21:30:12.464Z,16.63
2022-10-19T21:33:14.112Z,17.20
2022-10-19T21:36:15.772Z,15.75
2022-10-19T21:39:18.014Z,17.02
2022-10-19T21:42:19.635Z,16.10
2022-10-19T21:45:36.275Z,16.47
2022-10-19T21:48:38.348Z,15.80
2022-10-19T21:51:45.282Z,15.23
2022-10-19T21:54:47.153Z,13.75
2022-10-19T21:57:56.231Z,15.60
2022-10-19T22:01:04.920Z,17.30
2022-10-19T22:04:08.789Z,15.75
2022-10-19T22:07:13.384Z,15.75
2022-10-19T22:10:22.998Z,17.07
2022-10-19T22:13:47.391Z,16.95
2022-10-19T22:16:50.196Z,16.52
2022-10-19T22:19:51.906Z,17.30
2022-10-19T22:22:55.904Z,17.97
2022-10-19T22:25:59.788Z,17.95
2022-10-19T22:29:02.207Z,17.65
2022-10-19T22:32:07.063Z,15.90
2022-10-19T22:35:08.831Z,15.10
2022-10-19T22:38:13.054Z,16.92
2022-10-19T22:41:17.118Z,18.02
2022-10-19T22:44:18.833Z,15.13
2022-10-19T22:47:20.546Z,15.83
2022-10-19T22:50:24.059Z,16.08
2022-10-19T22:53:25.645Z,17.52
2022-10-19T22:56:30.074Z,17.77
2022-10-19T22:59:36.200Z,16.00
2022-10-19T23:02:38.090Z,16.25
2022-10-19T23:05:45.126Z,16.50
2022-10-19T23:08:47.334Z,16.45
2022-10-19T23:11:49.067Z,19.27
2022-10-19T23:14:52.573Z,16.95
2022-10-19T23:17:54.674Z,16.00
2022-10-19T23:21:01.260Z,17.13
2022-10-19T23:24:02.976Z,17.88
2022-10-19T23:27:07.517Z,18.63
2022-10-19T23:30:09.496Z,17.40
2022-10-19T23:33:11.162Z,16.65
2022-10-19T23:36:19.964Z,20.25
2022-10-19T23:39:21.575Z,15.95
2022-10-19T23:42:23.168Z,16.70
2022-10-19T23:45:24.750Z,17.02
2022-10-19T23:48:26.386Z,18.88
2022-10-19T23:51:28.031Z,15.73
2022-10-19T23:54:29.670Z,14.88
2022-10-19T23:57:31.309Z,19.55
